Time;durP1;ratioP1;P1;durP2;ratioP2;P2;SDS_P1;SDS_P2;PMS_P1;PMS_P2;Temp;Humidity;BMP_temperature;BMP_pressure;BME280_temperature;BME280_humidity;BME280_pressure;Samples;Min_cycle;Max_cycle;Signal;HPM_P1;HPM_P2
2021/09/14 00:00:39;;;;;;;11.60;6.30;;;14.70;99.90;;;;;;5012204;28;20037;-77
2021/09/14 00:03:05;;;;;;;10.88;7.10;;;14.70;99.90;;;;;;5013054;28;20033;-77
2021/09/14 00:05:31;;;;;;;10.80;6.57;;;14.80;99.90;;;;;;5013104;28;20026;-78
2021/09/14 00:07:56;;;;;;;9.60;6.18;;;14.90;99.90;;;;;;5012173;28;20044;-76
2021/09/14 00:10:22;;;;;;;7.80;7.00;;;14.90;99.90;;;;;;5013219;28;20022;-76
2021/09/14 00:12:48;;;;;;;8.23;6.50;;;14.90;99.90;;;;;;5013337;28;20382;-77
2021/09/14 00:15:13;;;;;;;14.63;6.75;;;15.00;99.90;;;;;;5012350;28;20034;-76
2021/09/14 00:17:39;;;;;;;7.25;6.63;;;15.00;99.90;;;;;;5013087;28;20037;-77
2021/09/14 00:20:05;;;;;;;7.93;6.30;;;15.00;99.90;;;;;;5012855;28;20034;-78
2021/09/14 00:22:31;;;;;;;6.72;5.90;;;15.00;99.90;;;;;;5012045;28;20492;-77
2021/09/14 00:24:56;;;;;;;11.43;6.40;;;15.00;99.90;;;;;;5013155;28;20112;-77
2021/09/14 00:27:22;;;;;;;8.93;6.32;;;15.00;99.90;;;;;;5013117;28;20525;-77
2021/09/14 00:29:48;;;;;;;10.02;6.45;;;15.00;99.90;;;;;;5012138;28;20022;-76
2021/09/14 00:32:16;;;;;;;12.23;6.70;;;15.00;99.90;;;;;;5012895;28;20041;-78
2021/09/14 00:34:42;;;;;;;11.15;6.70;;;15.00;99.90;;;;;;5012876;28;20032;-77
2021/09/14 00:37:07;;;;;;;10.25;6.57;;;15.00;99.90;;;;;;5012464;28;20030;-78
2021/09/14 00:39:33;;;;;;;6.85;6.22;;;15.00;99.90;;;;;;5012707;28;20104;-77
2021/09/14 00:41:58;;;;;;;8.50;6.13;;;14.90;99.90;;;;;;5012147;28;20034;-78
2021/09/14 00:44:24;;;;;;;7.72;6.32;;;14.90;99.90;;;;;;5012808;28;20072;-78
2021/09/14 00:46:50;;;;;;;13.90;7.10;;;14.90;99.90;;;;;;5012733;28;20087;-77
2021/09/14 00:49:18;;;;;;;7.30;6.18;;;14.90;99.90;;;;;;5012086;28;20443;-78
2021/09/14 00:51:44;;;;;;;7.38;6.65;;;14.80;99.90;;;;;;5012689;28;20028;-77
2021/09/14 00:54:17;;;;;;;7.30;6.60;;;14.80;99.90;;;;;;5013103;28;20038;-78
2021/09/14 00:56:43;;;;;;;7.28;6.60;;;14.90;99.90;;;;;;5012687;28;20120;-79
2021/09/14 00:59:10;;;;;;;8.70;6.68;;;14.90;99.90;;;;;;5014576;28;20037;-78
2021/09/14 01:01:35;;;;;;;9.23;6.75;;;14.90;99.90;;;;;;5016256;28;20034;-79
2021/09/14 01:04:01;;;;;;;8.38;7.18;;;14.90;99.90;;;;;;5016326;28;20083;-78
2021/09/14 01:06:27;;;;;;;14.30;7.03;;;14.90;99.90;;;;;;5016689;28;20394;-78
2021/09/14 01:08:53;;;;;;;9.35;6.70;;;14.90;99.90;;;;;;5016319;28;20028;-78
2021/09/14 01:11:18;;;;;;;11.07;7.13;;;14.90;99.90;;;;;;5015460;28;20032;-78
2021/09/14 01:13:44;;;;;;;7.80;6.95;;;14.90;99.90;;;;;;5017510;28;20478;-78
2021/09/14 01:16:13;;;;;;;13.63;8.52;;;14.90;99.90;;;;;;5020200;28;20390;-77
2021/09/14 01:18:39;;;;;;;11.10;6.80;;;14.90;99.90;;;;;;5015958;28;20111;-78
2021/09/14 01:21:06;;;;;;;10.75;7.07;;;14.90;99.90;;;;;;5017270;28;20092;-78
2021/09/14 01:23:32;;;;;;;8.13;7.05;;;14.80;99.90;;;;;;5015715;28;20018;-77
2021/09/14 01:25:58;;;;;;;8.15;7.30;;;14.80;99.90;;;;;;5015172;28;20030;-77
2021/09/14 01:28:24;;;;;;;9.55;7.65;;;14.80;99.90;;;;;;5015802;28;20058;-78
2021/09/14 01:30:49;;;;;;;9.82;7.18;;;14.80;99.90;;;;;;5015766;28;20069;-79
2021/09/14 01:33:15;;;;;;;8.55;7.68;;;14.70;99.90;;;;;;5015445;28;20030;-79
2021/09/14 01:35:42;;;;;;;12.27;7.70;;;14.70;99.90;;;;;;5015691;28;20493;-78
2021/09/14 01:38:08;;;;;;;10.40;8.00;;;14.70;99.90;;;;;;5016394;28;20030;-79
2021/09/14 01:40:34;;;;;;;10.52;8.05;;;14.80;99.90;;;;;;5015233;28;20087;-78
2021/09/14 01:43:03;;;;;;;12.90;8.32;;;14.80;99.90;;;;;;5015461;28;20112;-78
2021/09/14 01:45:28;;;;;;;13.57;9.27;;;14.80;99.90;;;;;;5014830;28;20056;-76
2021/09/14 01:47:54;;;;;;;10.23;8.02;;;14.80;99.90;;;;;;5016623;28;20466;-77
2021/09/14 01:50:19;;;;;;;10.55;8.63;;;14.80;99.90;;;;;;5017384;28;20029;-78
2021/09/14 01:52:45;;;;;;;10.15;8.07;;;14.80;99.90;;;;;;5016068;28;20037;-78
2021/09/14 01:55:12;;;;;;;12.95;8.55;;;14.80;99.90;;;;;;5015416;28;20498;-78
2021/09/14 01:57:40;;;;;;;10.50;8.20;;;14.80;99.90;;;;;;5015336;28;20045;-78
2021/09/14 02:00:15;;;;;;;11.88;8.45;;;14.80;99.90;;;;;;5014530;28;20033;-78
2021/09/14 02:05:16;;;;;;;14.40;7.88;;;14.70;99.90;;;;;;5016377;28;20587;-78
2021/09/14 02:08:06;;;;;;;10.35;8.13;;;14.70;99.90;;;;;;5014583;28;20026;-79
2021/09/14 02:41:04;;;;;;;12.60;8.57;;;14.40;99.90;;;;;;5014330;28;20436;-77
2021/09/14 02:59:33;;;;;;;13.43;9.63;;;14.00;99.90;;;;;;5014140;28;20026;-77
2021/09/14 03:01:59;;;;;;;10.52;8.77;;;14.10;99.90;;;;;;5014169;28;20026;-76
2021/09/14 03:04:24;;;;;;;10.88;9.20;;;14.00;99.90;;;;;;5013360;28;20022;-77
2021/09/14 03:06:50;;;;;;;13.55;9.45;;;14.00;99.90;;;;;;5014004;28;20025;-78
2021/09/14 03:09:16;;;;;;;10.68;9.40;;;14.00;99.90;;;;;;5013880;28;20040;-78
2021/09/14 03:11:41;;;;;;;13.57;10.07;;;14.00;99.90;;;;;;5016131;28;20036;-78
2021/09/14 03:14:07;;;;;;;11.57;9.43;;;14.00;99.90;;;;;;5017519;28;20030;-76
2021/09/14 03:16:33;;;;;;;10.20;9.07;;;13.90;99.90;;;;;;5013748;28;20438;-77
2021/09/14 03:18:59;;;;;;;16.98;10.30;;;13.90;99.90;;;;;;5013410;28;20479;-76
2021/09/14 03:21:25;;;;;;;14.10;10.05;;;13.90;99.90;;;;;;5014808;28;20041;-78
2021/09/14 03:23:51;;;;;;;15.98;10.77;;;13.90;99.90;;;;;;5015191;28;20056;-77
2021/09/14 03:26:17;;;;;;;15.18;9.40;;;13.90;99.90;;;;;;5016474;28;20026;-76
2021/09/14 03:28:42;;;;;;;12.95;10.20;;;13.80;99.90;;;;;;5017936;28;20378;-77
2021/09/14 03:31:08;;;;;;;12.15;9.80;;;13.80;99.90;;;;;;5013121;28;20478;-78
2021/09/14 03:33:34;;;;;;;12.50;9.77;;;13.80;99.90;;;;;;5013624;28;20415;-77
2021/09/14 03:35:59;;;;;;;12.48;10.88;;;13.80;99.90;;;;;;5013525;28;20367;-77
2021/09/14 03:38:25;;;;;;;14.25;10.60;;;13.80;99.90;;;;;;5013547;28;20419;-77
2021/09/14 03:40:50;;;;;;;16.40;10.35;;;13.70;99.90;;;;;;5013628;28;20494;-77
2021/09/14 03:43:17;;;;;;;15.52;10.43;;;13.70;99.90;;;;;;5013516;28;20026;-77
2021/09/14 03:45:45;;;;;;;13.63;10.27;;;13.70;99.90;;;;;;5012750;28;20359;-78
2021/09/14 03:48:11;;;;;;;15.10;11.13;;;13.70;99.90;;;;;;5013395;28;20026;-78
2021/09/14 03:50:36;;;;;;;12.60;10.77;;;13.70;99.90;;;;;;5013310;28;20052;-77
2021/09/14 03:53:02;;;;;;;14.50;10.63;;;13.70;99.90;;;;;;5012353;28;20137;-78
2021/09/14 03:55:28;;;;;;;10.50;9.20;;;13.70;99.90;;;;;;5013301;28;20037;-77
2021/09/14 03:57:53;;;;;;;13.45;10.80;;;13.60;99.90;;;;;;5013501;28;20120;-77
2021/09/14 04:00:19;;;;;;;13.35;9.88;;;13.60;99.90;;;;;;5012580;28;20478;-77
2021/09/14 04:10:41;;;;;;;18.38;10.27;;;13.60;99.90;;;;;;5013388;28;20068;-77
2021/09/14 04:13:08;;;;;;;13.00;9.45;;;13.50;99.90;;;;;;5012485;28;20045;-77
2021/09/14 04:15:34;;;;;;;17.38;10.82;;;13.50;99.90;;;;;;5013014;28;20393;-77
2021/09/14 04:18:00;;;;;;;13.13;10.60;;;13.50;99.90;;;;;;5012979;28;20109;-76
2021/09/14 04:20:26;;;;;;;11.55;10.05;;;13.50;99.90;;;;;;5012448;28;20062;-76
2021/09/14 04:22:51;;;;;;;17.02;10.80;;;13.50;99.90;;;;;;5015960;28;20022;-78
2021/09/14 04:25:20;;;;;;;13.23;10.63;;;13.50;99.90;;;;;;5013081;28;20478;-78
2021/09/14 04:27:51;;;;;;;11.93;10.15;;;13.40;99.90;;;;;;5012246;28;20437;-77
2021/09/14 04:30:17;;;;;;;13.77;10.90;;;13.60;99.90;;;;;;5011402;28;20469;-77
2021/09/14 04:32:43;;;;;;;12.15;10.38;;;13.40;99.90;;;;;;5011373;28;20064;-78
2021/09/14 04:35:09;;;;;;;15.98;11.13;;;13.40;99.90;;;;;;5015490;28;20117;-77
2021/09/14 04:37:34;;;;;;;14.60;10.65;;;13.40;99.90;;;;;;5016976;28;20093;-76
2021/09/14 04:40:00;;;;;;;12.90;11.18;;;13.40;99.90;;;;;;5016761;28;20077;-78
2021/09/14 04:42:25;;;;;;;12.27;9.75;;;13.30;99.90;;;;;;5016088;28;20528;-77
2021/09/14 04:44:51;;;;;;;17.88;11.05;;;13.30;99.90;;;;;;5016160;28;20512;-77
2021/09/14 04:47:16;;;;;;;20.13;12.02;;;13.30;99.90;;;;;;5016814;28;20030;-78
2021/09/14 04:49:42;;;;;;;12.55;11.13;;;13.30;99.90;;;;;;5016011;28;20387;-77
2021/09/14 04:52:08;;;;;;;16.52;11.45;;;13.30;99.90;;;;;;5016237;28;20394;-77
2021/09/14 04:54:34;;;;;;;16.15;10.88;;;13.30;99.90;;;;;;5015084;28;20120;-78
2021/09/14 04:57:00;;;;;;;13.13;10.27;;;13.30;99.90;;;;;;5015652;28;20038;-76
2021/09/14 04:59:26;;;;;;;13.68;11.45;;;13.30;99.90;;;;;;5016149;28;20028;-77
2021/09/14 05:01:54;;;;;;;18.40;11.57;;;13.40;99.90;;;;;;5016159;28;20373;-77
2021/09/14 05:04:20;;;;;;;15.73;11.45;;;13.30;99.90;;;;;;5015983;28;20033;-77
2021/09/14 05:06:46;;;;;;;20.58;11.38;;;13.40;99.90;;;;;;5018901;28;20117;-77
2021/09/14 05:09:11;;;;;;;18.77;11.57;;;13.40;99.90;;;;;;5015604;28;20088;-77
2021/09/14 05:11:37;;;;;;;16.67;11.82;;;13.40;99.90;;;;;;5016228;28;20054;-76
2021/09/14 05:14:03;;;;;;;18.83;12.32;;;13.40;99.90;;;;;;5018344;28;20413;-77
2021/09/14 05:16:28;;;;;;;20.63;12.82;;;13.40;99.90;;;;;;5025686;28;20060;-77
2021/09/14 05:18:55;;;;;;;14.80;11.55;;;13.50;99.90;;;;;;5019271;28;20056;-78
2021/09/14 05:21:20;;;;;;;18.67;11.30;;;13.50;99.90;;;;;;5017273;28;20525;-78
2021/09/14 05:23:46;;;;;;;14.70;11.20;;;13.50;99.90;;;;;;5015662;28;20058;-77
2021/09/14 05:26:12;;;;;;;20.38;12.20;;;13.50;99.90;;;;;;5016588;28;20025;-78
2021/09/14 05:28:42;;;;;;;16.90;11.40;;;13.50;99.90;;;;;;5017079;28;20050;-79
2021/09/14 05:31:08;;;;;;;15.95;11.20;;;13.50;99.90;;;;;;5016554;28;20048;-78
2021/09/14 05:33:35;;;;;;;18.60;12.18;;;13.50;99.90;;;;;;5015908;28;20030;-77
2021/09/14 05:36:01;;;;;;;19.48;12.48;;;13.60;99.90;;;;;;5015729;28;20041;-77
2021/09/14 05:38:28;;;;;;;17.02;11.80;;;13.60;99.90;;;;;;5015442;28;20026;-77
2021/09/14 05:40:56;;;;;;;15.38;11.48;;;13.60;99.90;;;;;;5015451;28;20041;-76
2021/09/14 05:43:24;;;;;;;17.42;11.70;;;13.70;99.90;;;;;;5015504;28;20021;-78
2021/09/14 05:45:50;;;;;;;19.10;12.57;;;13.70;99.90;;;;;;5014370;28;20034;-79
2021/09/14 05:48:15;;;;;;;13.85;11.05;;;13.80;99.90;;;;;;5015587;28;20033;-78
2021/09/14 05:50:42;;;;;;;24.38;12.05;;;13.80;99.90;;;;;;5015427;28;20061;-78
2021/09/14 05:53:08;;;;;;;17.00;11.48;;;13.80;99.90;;;;;;5014635;28;20045;-78
2021/09/14 05:55:38;;;;;;;20.83;12.27;;;13.90;99.90;;;;;;5015335;28;20641;-77
2021/09/14 05:58:04;;;;;;;17.00;12.10;;;14.00;99.90;;;;;;5015452;28;20018;-78
2021/09/14 06:00:30;;;;;;;21.70;12.13;;;14.00;99.90;;;;;;5014660;28;20505;-79
2021/09/14 06:02:56;;;;;;;15.82;10.73;;;14.00;99.90;;;;;;5015335;28;20025;-78
2021/09/14 06:05:21;;;;;;;15.95;11.48;;;14.10;99.90;;;;;;5015331;28;20557;-77
2021/09/14 06:07:47;;;;;;;21.33;12.48;;;14.10;99.90;;;;;;5014408;28;20505;-78
2021/09/14 06:10:12;;;;;;;17.88;11.15;;;14.20;99.90;;;;;;5015178;28;20492;-78
2021/09/14 06:12:41;;;;;;;14.43;12.15;;;14.20;99.90;;;;;;5014340;28;20065;-77
2021/09/14 06:15:10;;;;;;;16.42;11.50;;;14.20;99.90;;;;;;5014850;28;20382;-77
2021/09/14 06:17:36;;;;;;;17.58;13.18;;;14.20;99.90;;;;;;5014937;28;20052;-79
2021/09/14 06:20:03;;;;;;;16.17;13.10;;;14.20;99.90;;;;;;5014328;28;20355;-79
2021/09/14 06:22:28;;;;;;;18.65;12.50;;;14.30;99.90;;;;;;5014845;28;20029;-78
2021/09/14 06:24:54;;;;;;;15.98;12.75;;;14.20;99.90;;;;;;5014978;28;20026;-77
2021/09/14 06:27:19;;;;;;;18.33;13.07;;;14.30;99.90;;;;;;5014124;28;20026;-79
2021/09/14 06:29:45;;;;;;;18.13;13.80;;;14.30;99.90;;;;;;5014902;28;20160;-78
2021/09/14 06:32:10;;;;;;;16.58;12.85;;;14.40;99.90;;;;;;5014717;28;20390;-77
2021/09/14 06:34:36;;;;;;;22.25;14.15;;;14.40;99.90;;;;;;5013801;28;20022;-78
2021/09/14 06:37:03;;;;;;;26.23;13.95;;;14.40;99.90;;;;;;5014544;28;20026;-79
2021/09/14 06:39:29;;;;;;;20.88;13.80;;;14.40;99.90;;;;;;5014422;28;20104;-78
2021/09/14 06:41:55;;;;;;;17.80;13.82;;;14.40;99.90;;;;;;5013949;28;20140;-77
2021/09/14 06:44:21;;;;;;;19.88;12.63;;;14.50;99.90;;;;;;5014272;28;20029;-77
2021/09/14 06:46:47;;;;;;;15.95;13.70;;;14.50;99.90;;;;;;5014507;28;20112;-77
2021/09/14 06:49:12;;;;;;;18.40;13.68;;;14.50;99.90;;;;;;5013832;28;20382;-78
2021/09/14 06:51:38;;;;;;;18.90;13.27;;;14.60;99.90;;;;;;5014262;28;20030;-79
2021/09/14 06:54:04;;;;;;;17.67;13.18;;;14.60;99.90;;;;;;5013920;28;20053;-79
2021/09/14 06:56:32;;;;;;;18.40;14.52;;;14.70;99.90;;;;;;5013406;28;20088;-79
2021/09/14 06:58:57;;;;;;;19.52;13.73;;;14.70;99.90;;;;;;5014231;28;20029;-79
2021/09/14 07:01:23;;;;;;;19.90;13.15;;;14.80;99.90;;;;;;5013962;28;20030;-78
2021/09/14 07:03:51;;;;;;;18.95;13.40;;;14.90;99.90;;;;;;5013286;28;20029;-78
2021/09/14 07:06:17;;;;;;;19.48;14.80;;;15.00;99.90;;;;;;5014086;28;20121;-79
2021/09/14 07:08:42;;;;;;;17.20;13.15;;;15.10;99.90;;;;;;5013420;28;20490;-78
2021/09/14 07:11:08;;;;;;;20.58;13.75;;;15.10;99.90;;;;;;5013894;28;20120;-79
2021/09/14 07:13:33;;;;;;;18.70;12.93;;;15.20;99.90;;;;;;5014009;28;20083;-79
2021/09/14 07:15:59;;;;;;;19.67;14.93;;;15.20;99.90;;;;;;5013147;28;20026;-79
2021/09/14 07:18:24;;;;;;;17.63;13.35;;;15.20;99.90;;;;;;5013798;28;20104;-78
2021/09/14 07:20:50;;;;;;;19.52;14.30;;;15.20;99.90;;;;;;5013760;28;20037;-79
2021/09/14 07:23:16;;;;;;;17.58;13.95;;;15.30;99.90;;;;;;5013234;28;20058;-78
2021/09/14 07:25:42;;;;;;;19.85;13.18;;;15.30;99.90;;;;;;5015141;28;20117;-78
2021/09/14 07:28:09;;;;;;;21.45;14.60;;;15.30;99.90;;;;;;5014328;28;20084;-78
2021/09/14 07:30:35;;;;;;;22.13;15.00;;;15.40;99.90;;;;;;5013065;28;20544;-78
2021/09/14 07:33:02;;;;;;;18.25;15.15;;;15.40;99.90;;;;;;5013647;28;20034;-78
2021/09/14 07:35:30;;;;;;;20.13;14.95;;;15.50;99.90;;;;;;5013731;28;20352;-78
2021/09/14 07:37:59;;;;;;;18.23;14.57;;;15.50;99.90;;;;;;5012725;28;20026;-78
2021/09/14 07:40:25;;;;;;;21.17;14.82;;;15.50;99.90;;;;;;5013423;28;20398;-79
2021/09/14 07:42:53;;;;;;;22.25;15.57;;;15.60;99.90;;;;;;5013739;28;20024;-79
2021/09/14 07:45:19;;;;;;;17.02;14.25;;;15.60;99.90;;;;;;5012490;28;20065;-78
2021/09/14 07:47:44;;;;;;;21.48;17.10;;;15.70;99.90;;;;;;5013075;28;20050;-78
2021/09/14 07:50:10;;;;;;;19.67;15.10;;;15.90;99.90;;;;;;5013001;28;20022;-79
2021/09/14 07:52:36;;;;;;;20.17;14.77;;;15.90;99.90;;;;;;5012138;28;20053;-79
2021/09/14 07:55:01;;;;;;;19.80;16.60;;;16.00;99.90;;;;;;5013194;28;20026;-79
2021/09/14 07:57:28;;;;;;;20.17;15.57;;;16.10;99.90;;;;;;5013106;28;20038;-80
2021/09/14 07:59:54;;;;;;;21.92;16.02;;;16.20;99.90;;;;;;5012274;28;20034;-80
2021/09/14 08:02:19;;;;;;;20.10;13.88;;;16.30;99.90;;;;;;5012833;28;20030;-79
2021/09/14 08:04:45;;;;;;;18.85;16.02;;;16.30;99.90;;;;;;5012971;28;20112;-79
2021/09/14 08:07:10;;;;;;;24.00;16.48;;;16.40;99.90;;;;;;5012317;28;20072;-80
2021/09/14 08:09:36;;;;;;;22.40;16.02;;;16.60;99.90;;;;;;5018343;28;20026;-80
2021/09/14 08:12:01;;;;;;;20.27;15.60;;;16.70;99.90;;;;;;5019894;28;20022;-79
2021/09/14 08:14:27;;;;;;;23.48;15.77;;;16.80;99.90;;;;;;5019656;28;20084;-79
2021/09/14 08:16:53;;;;;;;24.58;16.25;;;16.80;99.90;;;;;;5019663;28;20028;-78
2021/09/14 08:19:21;;;;;;;22.67;16.20;;;16.90;99.90;;;;;;5018702;28;20100;-80
2021/09/14 08:21:47;;;;;;;24.15;16.77;;;16.90;99.90;;;;;;5019281;28;20041;-79
2021/09/14 08:24:13;;;;;;;22.13;18.17;;;17.00;99.90;;;;;;5019587;28;20114;-79
2021/09/14 08:26:39;;;;;;;23.70;18.05;;;17.10;99.90;;;;;;5019056;28;20062;-79
2021/09/14 08:29:05;;;;;;;24.98;17.63;;;17.20;99.90;;;;;;5019731;28;20025;-81
2021/09/14 08:31:32;;;;;;;21.75;17.55;;;17.20;99.90;;;;;;5019782;28;20451;-79
2021/09/14 08:33:58;;;;;;;26.65;16.88;;;17.20;99.90;;;;;;5018827;28;20052;-79
2021/09/14 08:36:24;;;;;;;27.75;18.45;;;17.20;99.90;;;;;;5020522;28;20477;-79
2021/09/14 08:38:50;;;;;;;23.52;17.48;;;17.30;99.90;;;;;;5019834;28;20030;-80
2021/09/14 08:41:17;;;;;;;21.95;17.92;;;17.40;99.90;;;;;;5018906;28;20064;-79
2021/09/14 08:43:45;;;;;;;21.02;16.50;;;17.40;99.90;;;;;;5019619;28;20026;-79
2021/09/14 08:46:12;;;;;;;24.70;17.70;;;17.50;99.90;;;;;;5019321;28;20030;-79
2021/09/14 08:48:37;;;;;;;20.67;17.27;;;17.50;99.90;;;;;;5018539;28;20034;-78
2021/09/14 08:51:04;;;;;;;22.83;17.25;;;17.60;99.90;;;;;;5019337;28;20120;-78
2021/09/14 08:53:32;;;;;;;20.42;17.35;;;17.60;99.90;;;;;;5020070;28;20079;-79
2021/09/14 08:55:58;;;;;;;21.02;17.52;;;17.70;99.90;;;;;;5018820;28;20033;-80
2021/09/14 08:58:23;;;;;;;22.88;18.65;;;17.80;99.90;;;;;;5019457;28;20033;-80
2021/09/14 09:00:51;;;;;;;21.58;17.65;;;17.90;99.90;;;;;;5019288;28;20038;-78
2021/09/14 09:03:29;;;;;;;24.52;17.92;;;18.00;99.90;;;;;;5018743;28;20026;-78
2021/09/14 09:05:56;;;;;;;20.50;17.88;;;18.00;99.90;;;;;;5019253;28;20391;-78
2021/09/14 09:08:27;;;;;;;22.27;17.65;;;18.20;99.90;;;;;;5018582;28;20433;-78
2021/09/14 09:11:12;;;;;;;21.70;18.55;;;18.10;99.90;;;;;;5019092;28;20034;-78
2021/09/14 09:13:44;;;;;;;21.15;17.52;;;18.30;99.90;;;;;;5019082;28;20032;-78
2021/09/14 09:16:27;;;;;;;24.33;18.17;;;18.30;99.90;;;;;;5018500;28;20025;-79
2021/09/14 09:18:57;;;;;;;22.17;17.55;;;18.40;99.90;;;;;;5019100;28;20040;-78
2021/09/14 09:21:49;;;;;;;;;;;18.40;99.90;;;;;;5016422;28;20034;-79
2021/09/14 09:24:16;;;;;;;18.73;15.75;;;18.50;99.90;;;;;;5012971;28;19948;-79
2021/09/14 09:26:45;;;;;;;24.45;17.77;;;18.70;99.90;;;;;;5015769;28;20033;-79
2021/09/14 09:29:19;;;;;;;24.23;17.23;;;18.80;99.90;;;;;;5015957;28;20104;-79
2021/09/14 09:31:47;;;;;;;22.38;16.58;;;18.80;99.90;;;;;;5015330;28;20033;-79
2021/09/14 09:34:13;;;;;;;19.55;17.45;;;18.90;99.90;;;;;;5016783;28;20077;-78
2021/09/14 09:36:41;;;;;;;19.80;16.52;;;19.10;99.90;;;;;;5014989;28;20497;-78
2021/09/14 09:39:15;;;;;;;23.67;18.25;;;19.10;99.90;;;;;;5016087;28;20026;-78
2021/09/14 09:41:53;;;;;;;21.55;17.70;;;19.20;99.90;;;;;;5016302;28;20041;-78
2021/09/14 09:44:19;;;;;;;22.95;18.30;;;19.20;99.90;;;;;;5015333;28;20033;-79
2021/09/14 09:46:56;;;;;;;21.63;18.35;;;19.30;99.90;;;;;;5016047;28;20048;-78
2021/09/14 09:49:23;;;;;;;21.60;19.17;;;19.30;99.90;;;;;;5016094;28;20171;-79
2021/09/14 09:51:50;;;;;;;21.70;17.80;;;19.30;99.90;;;;;;5014926;28;20029;-79
2021/09/14 09:54:17;;;;;;;25.50;17.98;;;19.30;99.90;;;;;;5015184;28;20050;-79
2021/09/14 09:56:48;;;;;;;22.75;17.35;;;19.40;99.90;;;;;;5015491;28;20405;-80
2021/09/14 09:59:14;;;;;;;21.65;18.58;;;19.40;99.90;;;;;;5014611;28;20033;-81
2021/09/14 10:01:42;;;;;;;21.08;16.70;;;19.50;99.90;;;;;;5015054;28;20402;-80
2021/09/14 10:04:13;;;;;;;18.58;16.63;;;19.60;99.90;;;;;;5015368;28;20025;-79
2021/09/14 10:06:44;;;;;;;22.90;18.20;;;19.60;99.90;;;;;;5014416;28;20026;-79
2021/09/14 10:09:10;;;;;;;23.63;17.63;;;19.60;99.90;;;;;;5015243;28;20022;-79
2021/09/14 10:11:36;;;;;;;20.92;16.95;;;19.70;99.90;;;;;;5014607;28;20033;-79
2021/09/14 10:14:08;;;;;;;17.98;16.08;;;19.80;99.90;;;;;;5014837;28;20029;-79
2021/09/14 10:16:48;;;;;;;20.42;17.55;;;19.90;99.90;;;;;;5015140;28;20033;-79
2021/09/14 10:19:17;;;;;;;21.40;18.20;;;20.00;99.90;;;;;;5014343;28;20053;-79
2021/09/14 10:22:07;;;;;;;21.67;17.23;;;19.90;99.90;;;;;;5015031;28;20117;-80
2021/09/14 10:24:35;;;;;;;21.90;16.35;;;20.10;99.90;;;;;;5014726;28;20036;-78
2021/09/14 10:27:08;;;;;;;22.73;18.48;;;20.10;99.90;;;;;;5014260;28;20129;-78
2021/09/14 10:29:34;;;;;;;21.05;16.95;;;20.20;99.90;;;;;;5014644;28;20030;-78
2021/09/14 10:32:05;;;;;;;23.45;18.83;;;20.30;99.90;;;;;;5014666;28;20030;-76
2021/09/14 10:34:32;;;;;;;20.80;17.58;;;20.30;99.90;;;;;;5015098;28;20065;-78
2021/09/14 10:37:07;;;;;;;18.77;16.77;;;20.40;99.90;;;;;;5014437;28;20029;-79
2021/09/14 10:39:38;;;;;;;21.52;16.65;;;20.50;99.90;;;;;;5014758;28;20072;-79
2021/09/14 10:42:17;;;;;;;19.50;16.50;;;20.60;99.90;;;;;;5013771;28;20034;-78
2021/09/14 10:44:45;;;;;;;21.77;17.08;;;20.70;99.90;;;;;;5016223;28;20048;-78
2021/09/14 10:47:19;;;;;;;19.60;17.15;;;20.80;99.90;;;;;;5017805;28;20367;-78
2021/09/14 10:49:54;;;;;;;18.60;16.63;;;20.90;99.90;;;;;;5017978;28;20018;-77
2021/09/14 10:52:37;;;;;;;17.52;15.65;;;20.90;99.90;;;;;;5016186;28;20026;-78
2021/09/14 10:55:10;;;;;;;20.15;15.73;;;20.90;99.90;;;;;;5016151;28;20509;-80
2021/09/14 10:57:39;;;;;;;18.35;16.33;;;21.10;99.90;;;;;;5015739;28;20026;-79
2021/09/14 11:00:10;;;;;;;19.98;16.67;;;21.10;99.90;;;;;;5014365;28;20068;-78
2021/09/14 11:02:38;;;;;;;17.73;14.45;;;21.20;99.90;;;;;;5014144;28;20026;-79
2021/09/14 11:05:05;;;;;;;21.30;14.38;;;21.30;99.90;;;;;;5014421;28;20029;-77
2021/09/14 11:07:31;;;;;;;16.98;15.18;;;21.40;99.90;;;;;;5014102;28;20029;-78
2021/09/14 11:09:59;;;;;;;16.95;14.93;;;21.50;99.90;;;;;;5016858;28;20033;-77
2021/09/14 11:12:27;;;;;;;14.80;13.38;;;21.70;99.90;;;;;;5016366;28;20022;-78
2021/09/14 11:14:53;;;;;;;16.00;13.70;;;21.70;99.90;;;;;;5013644;28;20478;-79
2021/09/14 11:17:47;;;;;;;15.02;13.57;;;21.90;99.90;;;;;;5013966;28;20030;-78
2021/09/14 11:20:14;;;;;;;15.68;14.00;;;22.00;99.90;;;;;;5011554;28;20045;-78
2021/09/14 11:22:42;;;;;;;16.63;13.80;;;22.10;99.90;;;;;;5013167;28;20036;-78
2021/09/14 11:25:33;;;;;;;17.13;13.70;;;22.20;99.90;;;;;;5014472;28;20045;-79
2021/09/14 11:28:09;;;;;;;;;;;22.20;99.90;;;;;;5014127;28;20041;-77
2021/09/14 11:30:35;;;;;;;15.82;11.45;;;22.30;99.90;;;;;;5012986;28;19912;-78
2021/09/14 11:33:08;;;;;;;15.55;13.98;;;22.30;99.90;;;;;;5013649;28;20080;-79
2021/09/14 11:35:36;;;;;;;14.80;13.20;;;22.30;99.90;;;;;;5013550;28;20060;-77
2021/09/14 11:38:04;;;;;;;14.93;13.40;;;22.40;99.90;;;;;;5012959;28;20389;-77
2021/09/14 11:40:32;;;;;;;15.02;13.45;;;22.30;99.90;;;;;;5013825;28;20033;-76
2021/09/14 11:43:00;;;;;;;19.05;13.85;;;22.30;99.90;;;;;;5013042;28;20493;-78
2021/09/14 11:45:28;;;;;;;15.27;13.25;;;22.20;99.90;;;;;;5012646;28;20061;-80
2021/09/14 11:47:55;;;;;;;13.15;11.82;;;22.30;99.90;;;;;;5013296;28;20033;-78
2021/09/14 11:50:29;;;;;;;16.83;12.95;;;22.30;99.90;;;;;;5012338;28;20089;-77
2021/09/14 11:53:04;;;;;;;18.98;13.25;;;22.30;99.90;;;;;;5013695;28;20058;-77
2021/09/14 11:55:31;;;;;;;15.05;13.00;;;22.40;99.90;;;;;;5015086;28;20116;-77
2021/09/14 11:57:58;;;;;;;17.05;13.77;;;22.50;99.90;;;;;;5013901;28;20065;-77
2021/09/14 12:00:42;;;;;;;18.20;13.57;;;22.50;99.90;;;;;;5016007;28;20109;-78
2021/09/14 12:03:09;;;;;;;12.95;11.70;;;22.50;99.90;;;;;;5014325;28;20030;-77
2021/09/14 12:05:35;;;;;;;14.50;12.98;;;22.50;99.90;;;;;;5012949;28;20072;-78
2021/09/14 12:08:09;;;;;;;14.25;12.75;;;22.50;99.90;;;;;;5013292;28;20029;-78
2021/09/14 12:10:43;;;;;;;14.48;13.02;;;22.60;99.90;;;;;;5013672;28;20108;-78
2021/09/14 12:13:16;;;;;;;13.00;11.68;;;22.60;99.90;;;;;;5013100;28;20065;-78
2021/09/14 12:15:42;;;;;;;13.43;11.85;;;22.60;99.90;;;;;;5014321;28;20033;-79
2021/09/14 12:18:08;;;;;;;12.73;11.27;;;22.70;99.90;;;;;;5014316;28;20034;-78
2021/09/14 12:20:36;;;;;;;16.35;12.95;;;22.90;99.90;;;;;;5012584;28;20030;-78
2021/09/14 12:23:01;;;;;;;15.23;12.95;;;23.00;99.90;;;;;;5012939;28;20514;-78
2021/09/14 12:25:27;;;;;;;17.52;12.70;;;23.10;99.90;;;;;;5012134;28;20076;-78
2021/09/14 12:27:52;;;;;;;15.20;12.65;;;23.20;99.90;;;;;;5013117;28;20534;-77
2021/09/14 12:30:18;;;;;;;16.20;11.75;;;23.20;99.90;;;;;;5013073;28;20026;-79
2021/09/14 12:32:44;;;;;;;14.63;13.00;;;23.30;99.90;;;;;;5012124;28;20386;-78
2021/09/14 12:35:09;;;;;;;14.40;11.80;;;23.40;99.90;;;;;;5012856;28;20034;-78
2021/09/14 12:37:35;;;;;;;13.30;11.95;;;23.50;99.90;;;;;;5012767;28;20029;-77
2021/09/14 12:40:01;;;;;;;13.68;12.00;;;23.60;99.90;;;;;;5011856;28;20034;-77
2021/09/14 12:42:26;;;;;;;14.50;11.73;;;23.80;99.90;;;;;;5012711;28;20034;-78
2021/09/14 12:44:52;;;;;;;14.65;13.02;;;23.80;99.90;;;;;;5012907;28;20101;-78
2021/09/14 12:47:17;;;;;;;17.35;12.07;;;23.80;99.90;;;;;;5012073;28;20382;-78
2021/09/14 12:49:43;;;;;;;13.88;12.02;;;23.70;99.90;;;;;;5012842;28;20205;-77
2021/09/14 12:52:08;;;;;;;14.82;13.32;;;23.70;99.90;;;;;;5013808;28;20482;-76
2021/09/14 12:54:35;;;;;;;14.38;12.98;;;23.70;99.90;;;;;;5013599;28;20050;-77
2021/09/14 12:57:01;;;;;;;19.48;13.73;;;23.60;99.90;;;;;;5017574;28;20032;-78
2021/09/14 12:59:27;;;;;;;19.85;12.15;;;23.50;99.90;;;;;;5016618;28;20030;-77
2021/09/14 13:01:52;;;;;;;14.02;12.57;;;23.50;99.90;;;;;;5016284;28;20504;-78
2021/09/14 13:04:18;;;;;;;13.43;12.23;;;23.40;99.90;;;;;;5016638;28;20097;-78
2021/09/14 13:06:43;;;;;;;18.80;12.18;;;23.40;99.90;;;;;;5016487;28;20486;-77
2021/09/14 13:09:09;;;;;;;15.15;13.15;;;23.40;99.90;;;;;;5015521;28;20466;-77
2021/09/14 13:11:37;;;;;;;14.57;12.57;;;23.40;99.90;;;;;;5016294;28;20470;-77
2021/09/14 13:16:47;;;;;;;15.07;12.95;;;23.30;99.90;;;;;;5015379;28;20064;-77
2021/09/14 13:19:13;;;;;;;14.77;12.95;;;23.40;99.90;;;;;;5015935;28;20046;-78
2021/09/14 13:21:38;;;;;;;19.45;12.60;;;23.40;99.90;;;;;;5015315;28;20034;-79
2021/09/14 13:24:04;;;;;;;14.40;12.95;;;23.50;99.90;;;;;;5015745;28;20026;-79
2021/09/14 13:26:29;;;;;;;14.52;13.15;;;23.50;99.90;;;;;;5015974;28;20026;-77
2021/09/14 13:28:55;;;;;;;14.50;12.93;;;23.50;99.90;;;;;;5015308;28;20022;-79
2021/09/14 13:31:21;;;;;;;17.42;14.57;;;23.50;99.90;;;;;;5015692;28;20113;-79